Terminal Aerodrome Forecast
Issued by NWS

Home | Current Version | Previous Version | Text Only | Print | Product List | Glossary On
Versions: 1 2 3 4 5 6 7 8 9 10 11 12 13 14 15 16 17 18 19 20
789
FTUS43 KDLH 032340
TAFHIB
TAF
KHIB 032340Z 0400/0424 31007KT P6SM FEW050
     FM040500 VRB03KT P6SM VCSH SCT025 OVC050
     FM040800 00000KT 3SM -SN SCT015 OVC025
     FM041000 VRB03KT 1SM -SN OVC010
     FM041500 27005KT 3SM -SN BKN010
     FM041800 30007KT P6SM SCT010=

USA.gov is the U.S. government's official web portal to all federal, state and local government web resources and services.